createdAt,value
2022-10-01T00:02:15.713Z,99252.47
2022-10-01T00:04:44.311Z,99246.81
2022-10-01T00:07:15.289Z,99251.88
2022-10-01T00:09:44.420Z,99252.47
2022-10-01T00:12:15.953Z,99257.97
2022-10-01T00:14:45.132Z,99262.69
2022-10-01T00:17:13.804Z,99257.25
2022-10-01T00:19:42.452Z,99260.25
2022-10-01T00:22:11.360Z,99250.41
2022-10-01T00:24:40.850Z,99250.53
2022-10-01T00:27:10.971Z,99246.34
2022-10-01T00:29:41.222Z,99244.56
2022-10-01T00:32:09.998Z,99241.19
2022-10-01T00:34:38.656Z,99260.75
2022-10-01T00:37:10.392Z,99267.13
2022-10-01T00:39:39.192Z,99280.19
2022-10-01T00:42:18.219Z,99280.25
2022-10-01T00:44:49.262Z,99264.03
2022-10-01T00:47:27.478Z,99262.41
2022-10-01T00:50:02.213Z,99261.91
2022-10-01T00:52:34.415Z,99268.94
2022-10-01T00:55:09.162Z,99272.19
2022-10-01T00:57:37.950Z,99269.53
2022-10-01T01:00:12.284Z,99255.28
2022-10-01T01:02:41.386Z,99248.34
2022-10-01T01:05:13.619Z,99245.06
2022-10-01T01:07:46.082Z,99247.03
2022-10-01T01:10:17.635Z,99251.09
2022-10-01T01:13:01.724Z,99247.19
2022-10-01T01:15:38.086Z,99246.13
2022-10-01T01:18:11.995Z,99236.34
2022-10-01T01:21:20.033Z,99230.94
2022-10-01T01:24:13.497Z,99239.16
2022-10-01T01:26:54.190Z,99247.13
2022-10-01T01:29:30.664Z,99236.50
2022-10-01T01:32:12.616Z,99225.63
2022-10-01T01:34:47.997Z,99234.88
2022-10-01T01:37:20.722Z,99229.81
2022-10-01T01:39:54.605Z,99240.13
2022-10-01T01:42:31.189Z,99241.00
2022-10-01T01:45:03.896Z,99241.16
2022-10-01T01:47:34.352Z,99242.00
2022-10-01T01:50:05.566Z,99246.13
2022-10-01T01:52:35.152Z,99237.81
2022-10-01T01:55:07.387Z,99242.53
2022-10-01T01:57:40.546Z,99245.59
2022-10-01T02:00:12.826Z,99244.41
2022-10-01T02:02:46.585Z,99245.00
2022-10-01T02:05:19.054Z,99231.09
2022-10-01T02:08:12.907Z,99239.28
2022-10-01T02:11:06.382Z,99235.69
2022-10-01T02:13:48.556Z,99252.47
2022-10-01T02:16:26.264Z,99248.97
2022-10-01T02:19:02.216Z,99252.19
2022-10-01T02:21:36.379Z,99252.91
2022-10-01T02:24:11.307Z,99254.34
2022-10-01T02:26:40.507Z,99251.97
2022-10-01T02:29:13.727Z,99258.91
2022-10-01T02:31:43.989Z,99259.53
2022-10-01T02:34:20.004Z,99260.03
2022-10-01T02:36:50.388Z,99251.63
2022-10-01T02:39:23.670Z,99260.44
2022-10-01T02:41:55.284Z,99259.53
2022-10-01T02:44:30.322Z,99246.66
2022-10-01T02:47:07.701Z,99251.88
2022-10-01T02:49:41.420Z,99258.31
2022-10-01T02:52:18.108Z,99268.25
2022-10-01T02:54:51.322Z,99271.63
2022-10-01T02:57:29.548Z,99271.34
2022-10-01T03:00:00.367Z,99277.31
2022-10-01T03:02:32.952Z,99271.94
2022-10-01T03:05:02.176Z,99267.41
2022-10-01T03:07:32.412Z,99271.19
2022-10-01T03:10:00.655Z,99277.16
2022-10-01T03:12:29.141Z,99280.00
2022-10-01T03:14:57.551Z,99282.59
2022-10-01T03:17:26.285Z,99287.22
2022-10-01T03:19:56.205Z,99275.63
2022-10-01T03:22:25.192Z,99286.53
2022-10-01T03:24:54.398Z,99290.25
2022-10-01T03:27:23.869Z,99296.31
2022-10-01T03:29:52.735Z,99295.47
2022-10-01T03:32:21.304Z,99305.53
2022-10-01T03:34:50.023Z,99295.38
2022-10-01T03:37:19.763Z,99290.25
2022-10-01T03:39:48.209Z,99297.50
2022-10-01T03:42:16.738Z,99300.00
2022-10-01T03:44:45.352Z,99302.13
2022-10-01T03:47:13.665Z,99298.63
2022-10-01T03:49:42.174Z,99297.25
2022-10-01T03:52:10.546Z,99291.50
2022-10-01T03:54:40.479Z,99284.84
2022-10-01T03:57:09.014Z,99285.41
2022-10-01T03:59:37.317Z,99273.00
2022-10-01T04:02:06.012Z,99272.63
2022-10-01T04:04:34.647Z,99270.66
2022-10-01T04:07:02.908Z,99273.50
2022-10-01T04:09:31.213Z,99275.13
2022-10-01T04:12:01.227Z,99282.84
2022-10-01T04:14:29.591Z,99283.28
2022-10-01T04:16:59.079Z,99279.75
2022-10-01T04:19:27.889Z,99279.97
2022-10-01T04:21:56.586Z,99274.53
2022-10-01T04:24:24.913Z,99278.38
2022-10-01T04:26:53.695Z,99276.22
2022-10-01T04:29:23.337Z,99276.44
2022-10-01T04:31:53.454Z,99276.44
2022-10-01T04:34:42.487Z,99280.06
2022-10-01T04:37:11.221Z,99288.53
2022-10-01T04:39:39.757Z,99292.09
2022-10-01T04:42:08.197Z,99294.91
2022-10-01T04:44:37.817Z,99290.75
2022-10-01T04:47:06.752Z,99291.34
2022-10-01T04:49:35.151Z,99294.59
2022-10-01T04:52:05.117Z,99294.59
2022-10-01T04:54:33.480Z,99292.88
2022-10-01T04:57:01.784Z,99297.53
2022-10-01T04:59:31.003Z,99287.06
2022-10-01T05:02:00.788Z,99286.47
2022-10-01T05:04:29.629Z,99282.81
2022-10-01T05:06:58.131Z,99291.41
2022-10-01T05:09:26.483Z,99290.13
2022-10-01T05:11:54.972Z,99285.66
2022-10-01T05:14:23.543Z,99279.13
2022-10-01T05:16:51.878Z,99282.88
2022-10-01T05:19:25.217Z,99281.38
2022-10-01T05:21:56.017Z,99275.34
2022-10-01T05:24:24.739Z,99288.03
2022-10-01T05:26:54.050Z,99288.31
2022-10-01T05:29:23.098Z,99285.94
2022-10-01T05:31:51.601Z,99275.75
2022-10-01T05:34:21.372Z,99279.78
2022-10-01T05:36:49.984Z,99289.47
2022-10-01T05:39:18.348Z,99285.56
2022-10-01T05:41:46.675Z,99282.72
2022-10-01T05:44:15.215Z,99280.75
2022-10-01T05:46:43.814Z,99294.81
2022-10-01T05:49:12.133Z,99301.09
2022-10-01T05:51:42.420Z,99312.84
2022-10-01T05:54:10.799Z,99298.88
2022-10-01T05:56:39.420Z,99299.53
2022-10-01T05:59:08.060Z,99300.88
2022-10-01T06:01:36.581Z,99293.47
2022-10-01T06:04:05.169Z,99299.78
2022-10-01T06:06:33.767Z,99303.13
2022-10-01T06:09:03.513Z,99297.69
2022-10-01T06:11:31.906Z,99292.91
2022-10-01T06:14:00.844Z,99298.16
2022-10-01T06:16:29.470Z,99284.09
2022-10-01T06:18:58.247Z,99281.50
2022-10-01T06:21:27.467Z,99290.34
2022-10-01T06:23:55.855Z,99293.09
2022-10-01T06:26:26.321Z,99287.34
2022-10-01T06:28:54.846Z,99293.03
2022-10-01T06:31:23.316Z,99294.41
2022-10-01T06:33:51.710Z,99300.41
2022-10-01T06:36:20.304Z,99318.16
2022-10-01T06:38:49.603Z,99336.38
2022-10-01T06:41:18.658Z,99325.88
2022-10-01T06:43:49.963Z,99330.50
2022-10-01T06:46:18.549Z,99331.53
2022-10-01T06:48:46.903Z,99325.31
2022-10-01T06:51:15.467Z,99326.16
2022-10-01T06:53:43.812Z,99330.22
2022-10-01T06:56:12.313Z,99327.34
2022-10-01T06:58:41.955Z,99313.53
2022-10-01T07:01:12.002Z,99312.03
2022-10-01T07:03:40.784Z,99314.78
2022-10-01T07:06:11.325Z,99300.81
2022-10-01T07:08:39.901Z,99306.81
2022-10-01T07:11:08.657Z,99304.06
2022-10-01T07:13:37.201Z,99301.78
2022-10-01T07:16:06.022Z,99312.72
2022-10-01T07:18:35.868Z,99301.97
2022-10-01T07:21:04.432Z,99302.16
2022-10-01T07:23:32.773Z,99305.06
2022-10-01T07:26:01.080Z,99304.75
2022-10-01T07:28:29.747Z,99304.34
2022-10-01T07:31:01.084Z,99297.34
2022-10-01T07:33:30.207Z,99299.25
2022-10-01T07:36:03.479Z,99295.03
2022-10-01T07:38:33.407Z,99301.00
2022-10-01T07:41:03.541Z,99308.13
2022-10-01T07:43:34.639Z,99299.63
2022-10-01T07:46:03.648Z,99301.03
2022-10-01T07:48:32.255Z,99303.78
2022-10-01T07:51:02.301Z,99301.63
2022-10-01T07:53:31.081Z,99295.28
2022-10-01T07:56:02.321Z,99307.38
2022-10-01T07:58:30.749Z,99311.69
2022-10-01T08:01:00.667Z,99304.03
2022-10-01T08:03:29.084Z,99299.47
2022-10-01T08:05:57.462Z,99305.91
2022-10-01T08:08:27.426Z,99324.19
2022-10-01T08:10:55.884Z,99307.78
2022-10-01T08:13:25.095Z,99301.72
2022-10-01T08:15:54.914Z,99315.13
2022-10-01T08:18:24.381Z,99303.56
2022-10-01T08:20:52.789Z,99309.69
2022-10-01T08:23:22.013Z,99310.38
2022-10-01T08:25:51.731Z,99313.25
2022-10-01T08:28:20.119Z,99319.47
2022-10-01T08:30:48.764Z,99326.53
2022-10-01T08:33:17.071Z,99331.38
2022-10-01T08:35:45.819Z,99344.19
2022-10-01T08:38:15.122Z,99344.59
2022-10-01T08:40:47.278Z,99319.47
2022-10-01T08:43:31.617Z,99327.06
2022-10-01T08:46:04.401Z,99318.25
2022-10-01T08:48:44.663Z,99317.00
2022-10-01T08:51:23.043Z,99322.03
2022-10-01T08:53:55.352Z,99320.75
2022-10-01T08:56:28.425Z,99309.94
2022-10-01T08:59:01.294Z,99307.06
2022-10-01T09:01:31.333Z,99305.97
2022-10-01T09:04:00.555Z,99303.41
2022-10-01T09:06:29.359Z,99297.66
2022-10-01T09:09:21.326Z,99297.53
2022-10-01T09:12:01.176Z,99300.31
2022-10-01T09:14:56.718Z,99297.13
2022-10-01T09:17:41.651Z,99309.63
2022-10-01T09:20:19.508Z,99284.81
2022-10-01T09:22:56.091Z,99278.53
2022-10-01T09:25:26.073Z,99279.34
2022-10-01T09:28:03.664Z,99280.94
2022-10-01T09:30:34.228Z,99278.81
2022-10-01T09:33:12.073Z,99279.28
2022-10-01T09:35:46.183Z,99267.31
2022-10-01T09:38:22.359Z,99267.25
2022-10-01T09:40:54.972Z,99266.06
2022-10-01T09:43:25.331Z,99257.34
2022-10-01T09:45:55.279Z,99250.41
2022-10-01T09:48:32.841Z,99240.44
2022-10-01T09:51:08.707Z,99241.19
2022-10-01T09:53:43.205Z,99238.03
2022-10-01T09:56:17.472Z,99242.22
2022-10-01T09:58:52.979Z,99225.97
2022-10-01T10:01:38.503Z,99225.59
2022-10-01T10:04:07.162Z,99217.81
2022-10-01T10:06:36.021Z,99216.50
2022-10-01T10:09:05.803Z,99204.03
2022-10-01T10:11:35.337Z,99193.94
2022-10-01T10:14:05.639Z,99191.97
2022-10-01T10:16:38.555Z,99183.09
2022-10-01T10:19:16.670Z,99174.78
2022-10-01T10:21:53.117Z,99177.94
2022-10-01T10:24:27.520Z,99169.91
2022-10-01T10:26:58.519Z,99165.75
2022-10-01T10:29:30.480Z,99172.59
2022-10-01T10:32:04.906Z,99172.09
2022-10-01T10:34:38.323Z,99169.31
2022-10-01T10:37:14.282Z,99167.84
2022-10-01T10:39:47.249Z,99161.97
2022-10-01T10:42:16.478Z,99151.16
2022-10-01T10:44:49.351Z,99153.84
2022-10-01T10:47:21.306Z,99146.66
2022-10-01T10:49:54.940Z,99143.84
2022-10-01T10:52:29.897Z,99138.97
2022-10-01T10:55:00.185Z,99130.78
2022-10-01T10:57:30.095Z,99125.88
2022-10-01T11:00:00.535Z,99115.00
2022-10-01T11:02:32.328Z,99102.94
2022-10-01T11:05:04.634Z,99089.34
2022-10-01T11:07:34.408Z,99084.72
2022-10-01T11:10:26.656Z,99068.63
2022-10-01T11:13:09.928Z,99070.53
2022-10-01T11:15:52.657Z,99074.72
2022-10-01T11:18:42.356Z,99064.31
2022-10-01T11:21:29.674Z,99063.59
2022-10-01T11:24:16.167Z,99071.03
2022-10-01T11:26:55.328Z,99062.66
2022-10-01T11:29:37.406Z,99046.34
2022-10-01T11:32:19.646Z,99036.88
2022-10-01T11:35:06.460Z,99033.88
2022-10-01T11:37:49.468Z,99028.69
2022-10-01T11:40:25.002Z,99026.44
2022-10-01T11:42:59.672Z,99033.69
2022-10-01T11:45:32.029Z,99028.44
2022-10-01T11:48:06.420Z,99026.59
2022-10-01T11:50:42.626Z,99027.34
2022-10-01T11:53:18.058Z,99026.03
2022-10-01T11:56:12.713Z,99019.56
2022-10-01T11:58:54.304Z,99021.16
2022-10-01T12:01:41.048Z,99016.47
2022-10-01T12:04:25.001Z,99012.97
2022-10-01T12:07:00.800Z,99010.66
2022-10-01T12:09:37.995Z,99014.88
2022-10-01T12:12:11.521Z,99014.31
2022-10-01T12:14:46.989Z,98999.34
2022-10-01T12:17:23.740Z,98990.28
2022-10-01T12:19:55.454Z,98984.09
2022-10-01T12:22:31.082Z,98986.66
2022-10-01T12:24:59.420Z,98979.31
2022-10-01T12:27:49.225Z,98974.03
2022-10-01T12:30:21.441Z,98973.88
2022-10-01T12:33:16.587Z,98966.72
2022-10-01T12:35:56.564Z,98965.09
2022-10-01T12:38:38.332Z,98956.63
2022-10-01T12:41:20.709Z,98950.41
2022-10-01T12:44:15.593Z,98944.63
2022-10-01T12:46:51.668Z,98942.25
2022-10-01T12:49:27.867Z,98935.19
2022-10-01T12:52:06.057Z,98932.84
2022-10-01T12:54:55.099Z,98928.03
2022-10-01T12:57:37.092Z,98925.91
2022-10-01T13:00:12.603Z,98918.50
2022-10-01T13:03:14.284Z,98900.59
2022-10-01T13:05:57.385Z,98902.00
2022-10-01T13:08:45.118Z,98901.66
2022-10-01T13:11:28.140Z,98903.34
2022-10-01T13:13:58.475Z,98900.84
2022-10-01T13:16:37.649Z,98890.91
2022-10-01T13:19:14.478Z,98903.84
2022-10-01T13:21:58.573Z,98903.41
2022-10-01T13:24:37.331Z,98912.25
2022-10-01T13:27:13.813Z,98913.00
2022-10-01T13:29:53.829Z,98912.44
2022-10-01T13:32:28.995Z,98898.03
2022-10-01T13:34:59.382Z,98887.75
2022-10-01T13:37:37.136Z,98892.50
2022-10-01T13:40:20.516Z,98879.75
2022-10-01T13:42:52.112Z,98870.88
2022-10-01T13:45:41.721Z,98876.16
2022-10-01T13:48:20.385Z,98874.59
2022-10-01T13:51:03.571Z,98881.97
2022-10-01T13:53:36.159Z,98881.59
2022-10-01T13:56:05.842Z,98874.78
2022-10-01T13:58:39.609Z,98876.88
2022-10-01T14:01:29.515Z,98887.00
2022-10-01T14:04:06.416Z,98884.88
2022-10-01T14:06:43.480Z,98889.75
2022-10-01T14:09:16.327Z,98888.28
2022-10-01T14:12:05.929Z,98889.09
2022-10-01T14:14:55.319Z,98893.56
2022-10-01T14:17:28.842Z,98895.91
2022-10-01T14:19:58.431Z,98909.41
2022-10-01T14:22:53.769Z,98916.78
2022-10-01T14:25:32.955Z,98915.22
2022-10-01T14:28:39.032Z,98939.22
2022-10-01T14:31:17.021Z,98996.59
2022-10-01T14:34:19.805Z,99005.03
2022-10-01T14:36:50.256Z,99028.78
2022-10-01T14:39:20.500Z,99043.69
2022-10-01T14:41:51.536Z,99029.88
2022-10-01T14:44:25.531Z,99062.03
2022-10-01T14:46:56.955Z,99069.25
2022-10-01T14:49:27.335Z,99069.88
2022-10-01T14:52:02.629Z,99062.66
2022-10-01T14:54:35.692Z,99073.09
2022-10-01T14:57:10.948Z,99085.16
2022-10-01T14:59:41.857Z,99077.47
2022-10-01T15:02:21.343Z,99093.66
2022-10-01T15:04:51.881Z,99105.16
2022-10-01T15:07:20.930Z,99132.81
2022-10-01T15:09:50.459Z,99128.97
2022-10-01T15:12:23.794Z,99121.25
2022-10-01T15:14:55.574Z,99078.09
2022-10-01T15:17:28.342Z,99059.31
2022-10-01T15:19:58.688Z,99085.03
2022-10-01T15:22:30.708Z,99077.81
2022-10-01T15:25:02.128Z,99079.63
2022-10-01T15:27:31.734Z,99102.72
2022-10-01T15:30:01.249Z,99133.09
2022-10-01T15:32:31.268Z,99153.72
2022-10-01T15:35:02.710Z,99143.38
2022-10-01T15:37:35.640Z,99120.94
2022-10-01T15:40:08.202Z,99108.16
2022-10-01T15:42:37.641Z,99105.03
2022-10-01T15:45:23.971Z,99108.19
2022-10-01T15:47:57.143Z,99091.16
2022-10-01T15:50:28.511Z,99084.78
2022-10-01T15:53:06.174Z,99086.63
2022-10-01T15:55:43.808Z,99093.84
2022-10-01T15:58:16.759Z,99077.41
2022-10-01T16:00:59.949Z,99074.06
2022-10-01T16:03:33.519Z,99074.47
2022-10-01T16:06:04.160Z,99072.50
2022-10-01T16:08:37.026Z,99082.81
2022-10-01T16:11:20.548Z,99066.78
2022-10-01T16:13:50.687Z,99059.16
2022-10-01T16:16:26.009Z,99050.50
2022-10-01T16:19:00.037Z,99049.78
2022-10-01T16:21:29.045Z,99042.31
2022-10-01T16:23:57.811Z,99045.91
2022-10-01T16:26:40.337Z,99041.13
2022-10-01T16:29:25.882Z,99046.13
2022-10-01T16:31:55.112Z,99071.03
2022-10-01T16:34:27.853Z,99069.84
2022-10-01T16:36:56.197Z,99065.06
2022-10-01T16:39:25.338Z,99063.97
2022-10-01T16:42:19.003Z,99076.31
2022-10-01T16:44:43.811Z,99088.09
2022-10-01T16:47:13.166Z,99099.00
2022-10-01T16:49:42.901Z,99128.09
2022-10-01T16:52:16.735Z,99146.69
2022-10-01T16:54:47.453Z,99163.09
2022-10-01T16:57:16.865Z,99154.50
2022-10-01T16:59:45.391Z,99172.53
2022-10-01T17:02:15.634Z,99188.38
2022-10-01T17:04:45.709Z,99188.75
2022-10-01T17:07:14.186Z,99168.75
2022-10-01T17:09:42.603Z,99171.69
2022-10-01T17:12:11.317Z,99168.06
2022-10-01T17:14:39.570Z,99167.47
2022-10-01T17:17:07.949Z,99145.22
2022-10-01T17:19:36.600Z,99147.53
2022-10-01T17:22:06.357Z,99138.50
2022-10-01T17:24:34.840Z,99123.69
2022-10-01T17:27:03.422Z,99115.03
2022-10-01T17:29:33.478Z,99097.94
2022-10-01T17:32:02.082Z,99100.13
2022-10-01T17:34:30.778Z,99078.69
2022-10-01T17:37:00.415Z,99081.34
2022-10-01T17:39:30.699Z,99070.25
2022-10-01T17:41:59.387Z,99066.59
2022-10-01T17:44:27.888Z,99066.91
2022-10-01T17:46:56.332Z,99075.47
2022-10-01T17:49:25.232Z,99074.47
2022-10-01T17:51:53.923Z,99090.22
2022-10-01T17:54:23.326Z,99096.53
2022-10-01T17:56:54.925Z,99113.28
2022-10-01T17:59:23.975Z,99118.75
2022-10-01T18:01:53.296Z,99107.66
2022-10-01T18:04:21.697Z,99104.97
2022-10-01T18:06:52.255Z,99105.03
2022-10-01T18:09:21.126Z,99100.44
2022-10-01T18:11:49.892Z,99084.22
2022-10-01T18:14:19.834Z,99092.53
2022-10-01T18:16:48.389Z,99099.25
2022-10-01T18:19:52.741Z,99097.28
2022-10-01T18:22:13.555Z,99094.72
2022-10-01T18:24:42.935Z,99073.84
2022-10-01T18:27:11.597Z,99079.63
2022-10-01T18:29:41.641Z,99082.72
2022-10-01T18:32:16.862Z,99086.28
2022-10-01T18:34:50.962Z,99075.22
2022-10-01T18:37:27.668Z,99073.22
2022-10-01T18:40:01.183Z,99063.94
2022-10-01T18:42:38.473Z,99058.88
2022-10-01T18:45:16.050Z,99051.53
2022-10-01T18:47:55.812Z,99048.63
2022-10-01T18:50:40.268Z,99045.66
2022-10-01T18:53:22.298Z,99052.66
2022-10-01T18:56:08.935Z,99060.59
2022-10-01T18:59:02.504Z,99055.63
2022-10-01T19:01:43.604Z,99059.38
2022-10-01T19:04:30.176Z,99069.88
2022-10-01T19:07:09.695Z,99076.72
2022-10-01T19:09:51.973Z,99075.56
2022-10-01T19:12:38.144Z,99066.19
2022-10-01T19:15:20.847Z,99063.72
2022-10-01T19:18:03.892Z,99055.22
2022-10-01T19:20:48.723Z,99053.59
2022-10-01T19:23:31.990Z,99052.22
2022-10-01T19:26:08.948Z,99047.81
2022-10-01T19:29:04.291Z,99054.50
2022-10-01T19:31:42.759Z,99053.97
2022-10-01T19:34:19.149Z,99040.06
2022-10-01T19:36:54.699Z,99039.97
2022-10-01T19:39:27.299Z,99039.47
2022-10-01T19:42:00.513Z,99046.94
2022-10-01T19:44:33.560Z,99061.94
2022-10-01T19:47:15.721Z,99064.56
2022-10-01T19:49:48.923Z,99078.50
2022-10-01T19:52:19.985Z,99096.34
2022-10-01T19:54:55.191Z,99099.09
2022-10-01T19:57:25.757Z,99085.78
2022-10-01T19:59:57.188Z,99082.56
2022-10-01T20:02:33.988Z,99069.31
2022-10-01T20:05:06.415Z,99069.56
2022-10-01T20:07:42.395Z,99075.97
2022-10-01T20:10:21.669Z,99067.69
2022-10-01T20:13:02.261Z,99063.13
2022-10-01T20:15:44.477Z,99066.53
2022-10-01T20:18:28.023Z,99061.63
2022-10-01T20:21:18.083Z,99062.78
2022-10-01T20:23:55.141Z,99071.59
2022-10-01T20:26:31.467Z,99065.19
2022-10-01T20:29:14.941Z,99048.97
2022-10-01T20:31:53.299Z,99037.16
2022-10-01T20:34:29.317Z,99044.34
2022-10-01T20:37:15.547Z,99045.28
2022-10-01T20:39:50.215Z,99043.69
2022-10-01T20:42:24.214Z,99040.59
2022-10-01T20:44:54.088Z,99050.00
2022-10-01T20:47:28.819Z,99052.50
2022-10-01T20:50:09.127Z,99063.34
2022-10-01T20:52:48.787Z,99061.22
2022-10-01T20:55:26.593Z,99071.59
2022-10-01T20:57:59.434Z,99068.78
2022-10-01T21:00:29.522Z,99074.00
2022-10-01T21:03:05.580Z,99076.22
2022-10-01T21:05:38.435Z,99077.97
2022-10-01T21:08:18.824Z,99085.16
2022-10-01T21:10:51.640Z,99086.97
2022-10-01T21:13:33.425Z,99085.78
2022-10-01T21:16:16.203Z,99094.00
2022-10-01T21:18:57.390Z,99088.78
2022-10-01T21:21:33.995Z,99098.72
2022-10-01T21:24:18.679Z,99091.16
2022-10-01T21:27:01.692Z,99094.31
2022-10-01T21:29:56.896Z,99093.44
2022-10-01T21:32:39.496Z,99102.84
2022-10-01T21:35:23.200Z,99104.88
2022-10-01T21:38:01.668Z,99101.28
2022-10-01T21:40:44.258Z,99099.13
2022-10-01T21:43:24.040Z,99100.66
2022-10-01T21:46:04.490Z,99097.06
2022-10-01T21:48:41.485Z,99100.41
2022-10-01T21:51:17.985Z,99098.03
2022-10-01T21:54:03.955Z,99082.19
2022-10-01T21:56:55.041Z,99080.47
2022-10-01T21:59:40.452Z,99086.69
2022-10-01T22:02:22.518Z,99078.38
2022-10-01T22:04:56.712Z,99080.44
2022-10-01T22:07:35.490Z,99074.72
2022-10-01T22:10:11.456Z,99065.97
2022-10-01T22:12:45.567Z,99072.84
2022-10-01T22:15:24.495Z,99079.59
2022-10-01T22:17:55.828Z,99089.63
2022-10-01T22:20:29.158Z,99087.78
2022-10-01T22:23:01.872Z,99102.44
2022-10-01T22:25:33.251Z,99098.19
2022-10-01T22:28:07.235Z,99098.38
2022-10-01T22:30:41.512Z,99116.88
2022-10-01T22:33:13.689Z,99119.59
2022-10-01T22:35:50.056Z,99122.41
2022-10-01T22:38:24.681Z,99134.94
2022-10-01T22:41:01.602Z,99143.50
2022-10-01T22:43:32.165Z,99137.22
2022-10-01T22:46:25.789Z,99142.09
2022-10-01T22:49:01.028Z,99138.38
2022-10-01T22:51:51.021Z,99142.41
2022-10-01T22:54:31.270Z,99153.78
2022-10-01T22:57:14.491Z,99149.56
2022-10-01T22:59:57.366Z,99150.28
2022-10-01T23:02:33.359Z,99157.63
2022-10-01T23:05:33.716Z,99167.19
2022-10-01T23:08:13.320Z,99164.91
2022-10-01T23:10:51.498Z,99177.53
2022-10-01T23:13:27.704Z,99189.53
2022-10-01T23:16:04.200Z,99183.56
2022-10-01T23:18:47.013Z,99202.59
2022-10-01T23:21:27.313Z,99205.09
2022-10-01T23:24:03.776Z,99209.28
2022-10-01T23:26:40.362Z,99209.91
2022-10-01T23:29:36.669Z,99214.63
2022-10-01T23:32:21.484Z,99219.19
2022-10-01T23:35:00.687Z,99225.06
2022-10-01T23:37:53.709Z,99227.09
2022-10-01T23:40:26.801Z,99247.31
2022-10-01T23:43:01.840Z,99251.22
2022-10-01T23:45:35.140Z,99261.09
2022-10-01T23:48:14.356Z,99267.09
2022-10-01T23:50:49.263Z,99263.72
2022-10-01T23:53:22.519Z,99273.41
2022-10-01T23:56:18.963Z,99272.06
2022-10-01T23:58:51.670Z,99275.13
